createdAt,value
2023-02-15T00:00:49.787Z,1017.91
2023-02-15T00:01:48.760Z,1017.96
2023-02-15T00:02:48.767Z,1017.90
2023-02-15T00:03:48.742Z,1017.94
2023-02-15T00:04:48.745Z,1017.88
2023-02-15T00:05:49.746Z,1017.89
2023-02-15T00:06:49.692Z,1017.88
2023-02-15T00:07:48.681Z,1017.91
2023-02-15T00:08:48.677Z,1017.93
2023-02-15T00:09:49.671Z,1017.82
2023-02-15T00:10:48.674Z,1017.83
2023-02-15T00:11:48.669Z,1017.86
2023-02-15T00:12:49.618Z,1017.82
2023-02-15T00:13:48.621Z,1017.80
2023-02-15T00:14:48.612Z,1017.82
2023-02-15T00:15:49.608Z,1017.76
2023-02-15T00:16:48.664Z,1017.82
2023-02-15T00:17:48.609Z,1017.74
2023-02-15T00:18:49.565Z,1017.83
2023-02-15T00:19:48.590Z,1017.82
2023-02-15T00:20:48.559Z,1017.81
2023-02-15T00:21:48.529Z,1017.77
2023-02-15T00:22:48.597Z,1017.76
2023-02-15T00:23:49.507Z,1017.77
2023-02-15T00:24:48.490Z,1017.71
2023-02-15T00:25:48.491Z,1017.67
2023-02-15T00:26:48.477Z,1017.69
2023-02-15T00:27:48.471Z,1017.76
2023-02-15T00:28:49.492Z,1017.69
2023-02-15T00:29:48.465Z,1017.72
2023-02-15T00:30:48.702Z,1017.70
2023-02-15T00:31:48.448Z,1017.66
2023-02-15T00:32:49.437Z,1017.63
2023-02-15T00:33:48.391Z,1017.67
2023-02-15T00:34:48.389Z,1017.62
2023-02-15T00:35:48.396Z,1017.58
2023-02-15T00:36:48.418Z,1017.60
2023-02-15T00:37:48.407Z,1017.58
2023-02-15T00:38:49.361Z,1017.59
2023-02-15T00:39:48.342Z,1017.61
2023-02-15T00:40:49.326Z,1017.58
2023-02-15T00:41:48.312Z,1017.53
2023-02-15T00:42:48.309Z,1017.49
2023-02-15T00:43:48.397Z,1017.54
2023-02-15T00:44:48.326Z,1017.48
2023-02-15T00:45:48.292Z,1017.51
2023-02-15T00:46:48.811Z,1017.47
2023-02-15T00:47:48.240Z,1017.46
2023-02-15T00:48:48.234Z,1017.44
2023-02-15T00:49:48.254Z,1017.47
2023-02-15T00:50:49.265Z,1017.46
2023-02-15T00:51:49.225Z,1017.51
2023-02-15T00:52:48.221Z,1017.51
2023-02-15T00:53:48.186Z,1017.48
2023-02-15T00:54:48.185Z,1017.49
2023-02-15T00:55:48.184Z,1017.47
2023-02-15T00:56:48.231Z,1017.47
2023-02-15T00:57:48.138Z,1017.51
2023-02-15T00:58:48.147Z,1017.52
2023-02-15T00:59:48.152Z,1017.50
2023-02-15T01:00:48.157Z,1017.59
2023-02-15T01:01:49.127Z,1017.57
2023-02-15T01:02:49.123Z,1017.51
2023-02-15T01:03:48.091Z,1017.59
2023-02-15T01:04:48.110Z,1017.55
2023-02-15T01:05:48.057Z,1017.61
2023-02-15T01:06:49.074Z,1017.66
2023-02-15T01:07:48.123Z,1017.51
2023-02-15T01:08:48.022Z,1017.58
2023-02-15T01:09:48.021Z,1017.54
2023-02-15T01:10:48.031Z,1017.56
2023-02-15T01:11:48.038Z,1017.62
2023-02-15T01:12:49.058Z,1017.62
2023-02-15T01:13:47.984Z,1017.64
2023-02-15T01:14:48.002Z,1017.58
2023-02-15T01:15:47.989Z,1017.62
2023-02-15T01:16:47.960Z,1017.60
2023-02-15T01:17:47.966Z,1017.59
2023-02-15T01:18:47.943Z,1017.59
2023-02-15T01:19:47.975Z,1017.58
2023-02-15T01:20:48.904Z,1017.57
2023-02-15T01:21:48.908Z,1017.56
2023-02-15T01:22:47.904Z,1017.53
2023-02-15T01:23:47.902Z,1017.53
2023-02-15T01:24:47.863Z,1017.51
2023-02-15T01:25:47.977Z,1017.51
2023-02-15T01:26:47.858Z,1017.51
2023-02-15T01:27:48.846Z,1017.45
2023-02-15T01:28:47.841Z,1017.46
2023-02-15T01:29:48.940Z,1017.43
2023-02-15T01:30:47.969Z,1017.46
2023-02-15T01:31:47.978Z,1017.39
2023-02-15T01:32:47.807Z,1017.38
2023-02-15T01:33:48.801Z,1017.39
2023-02-15T01:34:47.778Z,1017.43
2023-02-15T01:35:47.738Z,1017.36
2023-02-15T01:36:48.753Z,1017.35
2023-02-15T01:37:48.754Z,1017.37
2023-02-15T01:38:47.716Z,1017.35
2023-02-15T01:39:47.730Z,1017.32
2023-02-15T01:40:48.683Z,1017.29
2023-02-15T01:41:48.690Z,1017.34
2023-02-15T01:42:47.666Z,1017.32
2023-02-15T01:43:47.664Z,1017.34
2023-02-15T01:44:48.660Z,1017.28
2023-02-15T01:45:48.684Z,1017.26
2023-02-15T01:46:47.675Z,1017.24
2023-02-15T01:47:48.629Z,1017.28
2023-02-15T01:48:47.613Z,1017.22
2023-02-15T01:49:47.598Z,1017.29
2023-02-15T01:50:47.580Z,1017.30
2023-02-15T01:51:47.594Z,1017.26
2023-02-15T01:52:47.586Z,1017.27
2023-02-15T01:53:47.548Z,1017.26
2023-02-15T01:54:47.549Z,1017.30
2023-02-15T01:55:55.172Z,1017.26
2023-02-15T01:56:47.515Z,1017.22
2023-02-15T01:57:47.517Z,1017.23
2023-02-15T01:58:47.525Z,1017.22
2023-02-15T01:59:48.495Z,1017.20
2023-02-15T02:00:47.488Z,1017.16
2023-02-15T02:01:47.514Z,1017.15
2023-02-15T02:02:48.501Z,1017.15
2023-02-15T02:03:48.509Z,1017.17
2023-02-15T02:04:47.418Z,1017.11
2023-02-15T02:05:47.403Z,1017.11
2023-02-15T02:06:47.393Z,1017.11
2023-02-15T02:07:48.416Z,1017.12
2023-02-15T02:08:47.391Z,1017.14
2023-02-15T02:09:47.389Z,1017.05
2023-02-15T02:10:47.363Z,1017.05
2023-02-15T02:11:47.360Z,1017.10
2023-02-15T02:12:47.331Z,1017.16
2023-02-15T02:13:47.322Z,1017.14
2023-02-15T02:14:47.380Z,1017.08
2023-02-15T02:15:47.337Z,1017.13
2023-02-15T02:16:48.300Z,1017.11
2023-02-15T02:17:48.295Z,1017.16
2023-02-15T02:18:47.286Z,1017.14
2023-02-15T02:19:47.262Z,1017.15
2023-02-15T02:20:48.234Z,1017.05
2023-02-15T02:21:48.246Z,1017.04
2023-02-15T02:22:47.224Z,1017.09
2023-02-15T02:23:47.232Z,1017.04
2023-02-15T02:24:47.222Z,1017.02
2023-02-15T02:25:47.185Z,1017.02
2023-02-15T02:26:47.199Z,1017.05
2023-02-15T02:27:47.217Z,1017.01
2023-02-15T02:28:47.178Z,1017.02
2023-02-15T02:29:47.157Z,1017.06
2023-02-15T02:30:47.280Z,1017.01
2023-02-15T02:31:48.254Z,1017.00
2023-02-15T02:32:48.119Z,1017.01
2023-02-15T02:33:48.113Z,1017.04
2023-02-15T02:34:47.084Z,1016.97
2023-02-15T02:35:47.073Z,1016.94
2023-02-15T02:36:47.073Z,1016.96
2023-02-15T02:37:47.090Z,1017.00
2023-02-15T02:38:47.076Z,1017.03
2023-02-15T02:39:47.049Z,1017.00
2023-02-15T02:40:47.050Z,1017.09
2023-02-15T02:41:47.046Z,1017.04
2023-02-15T02:42:47.002Z,1017.02
2023-02-15T02:43:47.050Z,1016.95
2023-02-15T02:44:47.012Z,1017.00
2023-02-15T02:45:46.973Z,1016.89
2023-02-15T02:46:48.074Z,1016.92
2023-02-15T02:47:46.966Z,1016.86
2023-02-15T02:48:46.946Z,1016.87
2023-02-15T02:49:46.946Z,1016.93
2023-02-15T02:50:46.964Z,1016.94
2023-02-15T02:51:47.925Z,1016.88
2023-02-15T02:52:46.922Z,1016.89
2023-02-15T02:53:46.905Z,1016.89
2023-02-15T02:54:47.890Z,1016.82
2023-02-15T02:55:46.884Z,1016.80
2023-02-15T02:56:46.879Z,1016.79
2023-02-15T02:57:46.841Z,1016.84
2023-02-15T02:58:47.848Z,1016.84
2023-02-15T02:59:46.864Z,1016.83
2023-02-15T03:00:46.847Z,1016.80
2023-02-15T03:01:46.873Z,1016.79
2023-02-15T03:02:47.855Z,1016.82
2023-02-15T03:03:46.773Z,1016.79
2023-02-15T03:04:46.780Z,1016.76
2023-02-15T03:05:47.777Z,1016.75
2023-02-15T03:06:46.735Z,1016.72
2023-02-15T03:07:46.749Z,1016.69
2023-02-15T03:08:46.842Z,1016.67
2023-02-15T03:09:46.698Z,1016.62
2023-02-15T03:10:46.723Z,1016.66
2023-02-15T03:11:46.700Z,1016.69
2023-02-15T03:12:46.723Z,1016.67
2023-02-15T03:13:46.682Z,1016.64
2023-02-15T03:14:47.301Z,1016.61
2023-02-15T03:15:46.716Z,1016.58
2023-02-15T03:16:46.645Z,1016.62
2023-02-15T03:17:46.636Z,1016.62
2023-02-15T03:18:46.642Z,1016.61
2023-02-15T03:19:47.605Z,1016.56
2023-02-15T03:20:47.628Z,1016.55
2023-02-15T03:21:46.592Z,1016.50
2023-02-15T03:22:46.578Z,1016.60
2023-02-15T03:23:46.588Z,1016.55
2023-02-15T03:24:46.580Z,1016.57
2023-02-15T03:25:46.555Z,1016.52
2023-02-15T03:26:46.558Z,1016.54
2023-02-15T03:27:46.550Z,1016.51
2023-02-15T03:28:46.502Z,1016.57
2023-02-15T03:29:47.506Z,1016.51
2023-02-15T03:30:46.493Z,1016.48
2023-02-15T03:31:46.662Z,1016.51
2023-02-15T03:32:46.519Z,1016.51
2023-02-15T03:33:46.528Z,1016.56
2023-02-15T03:34:46.452Z,1016.53
2023-02-15T03:35:46.433Z,1016.51
2023-02-15T03:36:46.432Z,1016.53
2023-02-15T03:37:46.434Z,1016.50
2023-02-15T03:38:46.392Z,1016.49
2023-02-15T03:39:46.451Z,1016.52
2023-02-15T03:40:47.275Z,1016.53
2023-02-15T03:41:46.372Z,1016.45
2023-02-15T03:42:46.368Z,1016.45
2023-02-15T03:43:47.253Z,1016.48
2023-02-15T03:44:46.342Z,1016.41
2023-02-15T03:45:47.352Z,1016.45
2023-02-15T03:46:46.446Z,1016.46
2023-02-15T03:47:46.399Z,1016.49
2023-02-15T03:48:46.310Z,1016.47
2023-02-15T03:49:46.317Z,1016.40
2023-02-15T03:50:46.270Z,1016.49
2023-02-15T03:51:46.267Z,1016.40
2023-02-15T03:52:47.350Z,1016.40
2023-02-15T03:53:46.259Z,1016.43
2023-02-15T03:54:46.251Z,1016.36
2023-02-15T03:55:46.213Z,1016.38
2023-02-15T03:56:46.207Z,1016.41
2023-02-15T03:57:46.236Z,1016.49
2023-02-15T03:58:46.183Z,1016.41
2023-02-15T03:59:46.181Z,1016.37
2023-02-15T04:00:47.221Z,1016.40
2023-02-15T04:01:46.185Z,1016.39
2023-02-15T04:02:46.145Z,1016.43
2023-02-15T04:03:46.155Z,1016.44
2023-02-15T04:04:46.141Z,1016.41
2023-02-15T04:05:46.112Z,1016.33
2023-02-15T04:06:46.111Z,1016.37
2023-02-15T04:07:47.110Z,1016.37
2023-02-15T04:08:47.076Z,1016.39
2023-02-15T04:09:46.089Z,1016.40
2023-02-15T04:10:46.094Z,1016.45
2023-02-15T04:11:47.046Z,1016.41
2023-02-15T04:12:46.053Z,1016.40
2023-02-15T04:13:46.059Z,1016.41
2023-02-15T04:14:46.032Z,1016.34
2023-02-15T04:15:46.007Z,1016.38
2023-02-15T04:16:46.834Z,1016.38
2023-02-15T04:17:45.985Z,1016.45
2023-02-15T04:18:45.976Z,1016.47
2023-02-15T04:19:45.981Z,1016.49
2023-02-15T04:20:45.938Z,1016.53
2023-02-15T04:21:46.022Z,1016.48
2023-02-15T04:22:45.923Z,1016.53
2023-02-15T04:23:46.909Z,1016.55
2023-02-15T04:24:45.915Z,1016.52
2023-02-15T04:25:45.889Z,1016.49
2023-02-15T04:26:45.903Z,1016.46
2023-02-15T04:27:46.865Z,1016.50
2023-02-15T04:28:45.852Z,1016.47
2023-02-15T04:29:45.872Z,1016.49
2023-02-15T04:30:45.828Z,1016.43
2023-02-15T04:31:46.999Z,1016.46
2023-02-15T04:32:46.838Z,1016.40
2023-02-15T04:33:46.809Z,1016.40
2023-02-15T04:34:45.775Z,1016.40
2023-02-15T04:35:45.811Z,1016.39
2023-02-15T04:36:45.795Z,1016.47
2023-02-15T04:37:46.778Z,1016.43
2023-02-15T04:38:45.741Z,1016.47
2023-02-15T04:39:45.728Z,1016.38
2023-02-15T04:40:45.720Z,1016.41
2023-02-15T04:41:45.736Z,1016.43
2023-02-15T04:42:45.694Z,1016.28
2023-02-15T04:43:46.216Z,1016.30
2023-02-15T04:44:45.684Z,1016.25
2023-02-15T04:45:45.673Z,1016.29
2023-02-15T04:46:46.678Z,1016.30
2023-02-15T04:47:45.693Z,1016.26
2023-02-15T04:48:45.636Z,1016.22
2023-02-15T04:49:45.659Z,1016.25
2023-02-15T04:50:45.612Z,1016.25
2023-02-15T04:51:46.632Z,1016.24
2023-02-15T04:52:45.598Z,1016.24
2023-02-15T04:53:45.635Z,1016.16
2023-02-15T04:54:45.608Z,1016.16
2023-02-15T04:55:45.553Z,1016.15
2023-02-15T04:56:45.554Z,1016.16
2023-02-15T04:57:45.541Z,1016.16
2023-02-15T04:58:46.525Z,1016.13
2023-02-15T04:59:45.546Z,1016.08
2023-02-15T05:00:45.566Z,1016.10
2023-02-15T05:01:45.499Z,1016.04
2023-02-15T05:02:46.477Z,1016.04
2023-02-15T05:03:45.468Z,1016.13
2023-02-15T05:04:45.490Z,1016.00
2023-02-15T05:05:45.439Z,1016.01
2023-02-15T05:06:45.490Z,1015.97
2023-02-15T05:07:46.464Z,1016.01
2023-02-15T05:08:45.419Z,1016.01
2023-02-15T05:09:45.402Z,1016.00
2023-02-15T05:10:45.398Z,1015.94
2023-02-15T05:11:45.400Z,1015.94
2023-02-15T05:12:45.408Z,1015.93
2023-02-15T05:13:45.377Z,1015.91
2023-02-15T05:14:45.372Z,1015.95
2023-02-15T05:15:45.335Z,1015.99
2023-02-15T05:16:46.428Z,1015.94
2023-02-15T05:17:45.303Z,1015.95
2023-02-15T05:18:46.317Z,1015.92
2023-02-15T05:19:45.328Z,1015.92
2023-02-15T05:20:46.312Z,1015.99
2023-02-15T05:21:45.274Z,1015.93
2023-02-15T05:22:45.264Z,1015.95
2023-02-15T05:23:45.304Z,1015.99
2023-02-15T05:24:45.240Z,1015.96
2023-02-15T05:25:45.308Z,1016.02
2023-02-15T05:26:45.268Z,1015.99
2023-02-15T05:27:45.220Z,1015.97
2023-02-15T05:28:46.196Z,1015.94
2023-02-15T05:29:45.190Z,1015.93
2023-02-15T05:30:45.420Z,1015.90
2023-02-15T05:31:45.532Z,1016.01
2023-02-15T05:32:45.360Z,1015.93
2023-02-15T05:33:45.180Z,1015.92
2023-02-15T05:34:46.138Z,1015.92
2023-02-15T05:35:45.124Z,1015.91
2023-02-15T05:36:45.120Z,1015.90
2023-02-15T05:37:45.138Z,1015.90
2023-02-15T05:38:45.132Z,1015.92
2023-02-15T05:39:45.171Z,1015.89
2023-02-15T05:40:45.120Z,1015.95
2023-02-15T05:41:46.053Z,1015.87
2023-02-15T05:42:45.139Z,1015.90
2023-02-15T05:43:45.058Z,1015.90
2023-02-15T05:44:45.049Z,1015.87
2023-02-15T05:45:45.140Z,1015.88
2023-02-15T05:46:45.007Z,1015.92
2023-02-15T05:47:46.030Z,1015.93
2023-02-15T05:48:45.054Z,1015.84
2023-02-15T05:49:44.983Z,1015.87
2023-02-15T05:50:44.979Z,1015.80
2023-02-15T05:51:44.954Z,1015.87
2023-02-15T05:52:45.937Z,1015.84
2023-02-15T05:53:44.950Z,1015.82
2023-02-15T05:54:45.917Z,1015.91
2023-02-15T05:55:44.931Z,1015.90
2023-02-15T05:56:44.925Z,1015.85
2023-02-15T05:57:44.898Z,1015.86
2023-02-15T05:58:44.862Z,1015.85
2023-02-15T05:59:44.862Z,1015.80
2023-02-15T06:00:44.863Z,1015.88
2023-02-15T06:01:44.872Z,1015.84
2023-02-15T06:02:45.927Z,1015.90
2023-02-15T06:03:44.898Z,1015.83
2023-02-15T06:04:44.798Z,1015.89
2023-02-15T06:05:44.860Z,1015.94
2023-02-15T06:06:44.796Z,1015.93
2023-02-15T06:07:44.782Z,1015.95
2023-02-15T06:08:44.785Z,1015.95
2023-02-15T06:09:44.783Z,1015.95
2023-02-15T06:10:45.745Z,1015.89
2023-02-15T06:11:44.762Z,1015.88
2023-02-15T06:12:44.733Z,1015.87
2023-02-15T06:13:44.704Z,1015.88
2023-02-15T06:14:44.707Z,1015.91
2023-02-15T06:15:44.816Z,1015.94
2023-02-15T06:16:44.769Z,1015.94
2023-02-15T06:17:44.659Z,1015.98
2023-02-15T06:18:44.665Z,1015.96
2023-02-15T06:19:44.646Z,1016.02
2023-02-15T06:20:44.671Z,1016.06
2023-02-15T06:21:44.649Z,1015.99
2023-02-15T06:22:44.651Z,1016.07
2023-02-15T06:23:45.590Z,1015.96
2023-02-15T06:24:45.607Z,1015.97
2023-02-15T06:25:44.578Z,1015.98
2023-02-15T06:26:44.608Z,1016.06
2023-02-15T06:27:44.612Z,1016.00
2023-02-15T06:28:44.552Z,1015.98
2023-02-15T06:29:44.545Z,1015.98
2023-02-15T06:30:44.566Z,1015.99
2023-02-15T06:31:44.693Z,1016.03
2023-02-15T06:32:44.515Z,1015.95
2023-02-15T06:33:45.175Z,1015.98
2023-02-15T06:34:46.591Z,1015.99
2023-02-15T06:35:44.467Z,1016.00
2023-02-15T06:36:44.468Z,1015.98
2023-02-15T06:37:45.446Z,1015.95
2023-02-15T06:38:45.445Z,1015.91
2023-02-15T06:39:44.447Z,1015.96
2023-02-15T06:40:44.418Z,1015.96
2023-02-15T06:41:44.429Z,1015.94
2023-02-15T06:42:45.406Z,1015.95
2023-02-15T06:43:44.417Z,1015.96
2023-02-15T06:44:44.391Z,1015.92
2023-02-15T06:45:45.381Z,1015.98
2023-02-15T06:46:44.436Z,1016.02
2023-02-15T06:47:44.356Z,1015.91
2023-02-15T06:48:44.339Z,1015.96
2023-02-15T06:49:44.319Z,1015.96
2023-02-15T06:50:44.300Z,1015.93
2023-02-15T06:51:44.299Z,1015.94
2023-02-15T06:52:44.306Z,1015.90
2023-02-15T06:53:44.283Z,1015.95
2023-02-15T06:54:44.270Z,1015.94
2023-02-15T06:55:44.258Z,1015.94
2023-02-15T06:56:45.243Z,1015.97
2023-02-15T06:57:44.238Z,1015.89
2023-02-15T06:58:44.237Z,1015.96
2023-02-15T06:59:44.241Z,1015.96
2023-02-15T07:00:44.225Z,1015.92
2023-02-15T07:01:44.252Z,1015.98
2023-02-15T07:02:44.196Z,1015.93
2023-02-15T07:03:45.155Z,1015.92
2023-02-15T07:04:44.190Z,1015.97
2023-02-15T07:05:44.129Z,1015.95
2023-02-15T07:06:44.123Z,1016.01
2023-02-15T07:07:44.139Z,1015.95
2023-02-15T07:08:45.096Z,1015.97
2023-02-15T07:09:45.115Z,1015.93
2023-02-15T07:10:44.093Z,1015.96
2023-02-15T07:11:44.073Z,1015.93
2023-02-15T07:12:44.065Z,1015.95
2023-02-15T07:13:44.060Z,1015.86
2023-02-15T07:14:44.054Z,1015.92
2023-02-15T07:15:44.076Z,1015.92
2023-02-15T07:16:44.040Z,1015.93
2023-02-15T07:17:44.037Z,1015.90
2023-02-15T07:18:44.980Z,1015.93
2023-02-15T07:19:43.989Z,1015.88
2023-02-15T07:20:43.963Z,1015.87
2023-02-15T07:21:43.988Z,1015.78
2023-02-15T07:22:43.977Z,1015.79
2023-02-15T07:23:43.930Z,1015.81
2023-02-15T07:24:43.930Z,1015.80
2023-02-15T07:25:43.921Z,1015.85
2023-02-15T07:26:43.942Z,1015.78
2023-02-15T07:27:43.893Z,1015.83
2023-02-15T07:28:44.901Z,1015.75
2023-02-15T07:29:43.898Z,1015.69
2023-02-15T07:30:43.894Z,1015.69
2023-02-15T07:31:43.875Z,1015.76
2023-02-15T07:32:43.875Z,1015.72
2023-02-15T07:33:43.829Z,1015.72
2023-02-15T07:34:43.851Z,1015.79
2023-02-15T07:35:43.830Z,1015.68
2023-02-15T07:36:44.824Z,1015.64
2023-02-15T07:37:43.786Z,1015.72
2023-02-15T07:38:44.835Z,1015.67
2023-02-15T07:39:44.757Z,1015.65
2023-02-15T07:40:43.748Z,1015.63
2023-02-15T07:41:43.765Z,1015.62
2023-02-15T07:42:43.784Z,1015.55
2023-02-15T07:43:43.720Z,1015.61
2023-02-15T07:44:44.709Z,1015.52
2023-02-15T07:45:44.705Z,1015.53
2023-02-15T07:46:43.712Z,1015.51
2023-02-15T07:47:43.715Z,1015.50
2023-02-15T07:48:43.751Z,1015.52
2023-02-15T07:49:43.708Z,1015.50
2023-02-15T07:50:43.687Z,1015.49
2023-02-15T07:51:43.633Z,1015.45
2023-02-15T07:52:44.655Z,1015.47
2023-02-15T07:53:43.618Z,1015.44
2023-02-15T07:54:43.610Z,1015.40
2023-02-15T07:55:43.608Z,1015.48
2023-02-15T07:56:44.611Z,1015.47
2023-02-15T07:57:43.592Z,1015.46
2023-02-15T07:58:43.571Z,1015.41
2023-02-15T07:59:44.541Z,1015.41
2023-02-15T08:00:43.564Z,1015.37
2023-02-15T08:01:44.541Z,1015.40
2023-02-15T08:02:43.549Z,1015.35
2023-02-15T08:03:43.550Z,1015.38
2023-02-15T08:04:43.482Z,1015.40
2023-02-15T08:05:44.513Z,1015.37
2023-02-15T08:06:43.492Z,1015.42
2023-02-15T08:07:43.447Z,1015.43
2023-02-15T08:08:44.442Z,1015.43
2023-02-15T08:09:43.453Z,1015.40
2023-02-15T08:10:43.426Z,1015.41
2023-02-15T08:11:43.439Z,1015.45
2023-02-15T08:12:43.393Z,1015.39
2023-02-15T08:13:43.394Z,1015.37
2023-02-15T08:14:43.406Z,1015.36
2023-02-15T08:15:43.400Z,1015.35
2023-02-15T08:16:43.484Z,1015.34
2023-02-15T08:17:44.376Z,1015.30
2023-02-15T08:18:43.365Z,1015.31
2023-02-15T08:19:43.358Z,1015.31
2023-02-15T08:20:43.310Z,1015.30
2023-02-15T08:21:43.344Z,1015.36
2023-02-15T08:22:43.301Z,1015.32
2023-02-15T08:23:43.302Z,1015.33
2023-02-15T08:24:43.316Z,1015.34
2023-02-15T08:25:43.263Z,1015.35
2023-02-15T08:26:43.267Z,1015.30
2023-02-15T08:27:43.322Z,1015.25
2023-02-15T08:28:44.271Z,1015.30
2023-02-15T08:29:43.381Z,1015.27
2023-02-15T08:30:43.239Z,1015.26
2023-02-15T08:31:43.331Z,1015.32
2023-02-15T08:32:43.201Z,1015.24
2023-02-15T08:33:44.214Z,1015.25
2023-02-15T08:34:43.226Z,1015.20
2023-02-15T08:35:43.208Z,1015.21
2023-02-15T08:36:43.176Z,1015.23
2023-02-15T08:37:43.152Z,1015.12
2023-02-15T08:38:43.127Z,1015.20
2023-02-15T08:39:44.148Z,1015.15
2023-02-15T08:40:44.098Z,1015.13
2023-02-15T08:41:43.107Z,1015.18
2023-02-15T08:42:43.150Z,1015.11
2023-02-15T08:43:43.063Z,1015.15
2023-02-15T08:44:43.081Z,1015.08
2023-02-15T08:45:43.090Z,1015.15
2023-02-15T08:46:44.084Z,1015.16
2023-02-15T08:47:43.050Z,1015.03
2023-02-15T08:48:43.048Z,1015.06
2023-02-15T08:49:43.011Z,1015.07
2023-02-15T08:50:42.997Z,1015.08
2023-02-15T08:51:43.994Z,1015.08
2023-02-15T08:52:42.981Z,1015.10
2023-02-15T08:53:43.954Z,1015.01
2023-02-15T08:54:43.007Z,1015.02
2023-02-15T08:55:42.954Z,1015.02
2023-02-15T08:56:42.935Z,1014.97
2023-02-15T08:57:42.910Z,1014.99
2023-02-15T08:58:42.921Z,1014.96
2023-02-15T08:59:42.923Z,1014.95
2023-02-15T09:00:42.971Z,1014.98
2023-02-15T09:01:43.885Z,1014.94
2023-02-15T09:02:42.877Z,1015.02
2023-02-15T09:03:42.896Z,1014.96
2023-02-15T09:04:42.872Z,1014.94
2023-02-15T09:05:42.854Z,1014.94
2023-02-15T09:06:42.877Z,1014.98
2023-02-15T09:07:43.896Z,1014.96
2023-02-15T09:08:42.795Z,1014.97
2023-02-15T09:09:43.809Z,1014.95
2023-02-15T09:10:43.834Z,1014.98
2023-02-15T09:11:42.793Z,1014.95
2023-02-15T09:12:42.762Z,1015.02
2023-02-15T09:13:43.828Z,1014.99
2023-02-15T09:14:42.768Z,1015.00
2023-02-15T09:15:42.737Z,1014.98
2023-02-15T09:16:42.809Z,1014.97
2023-02-15T09:17:42.710Z,1014.94
2023-02-15T09:18:42.685Z,1014.96
2023-02-15T09:19:42.744Z,1014.92
2023-02-15T09:20:42.675Z,1014.96
2023-02-15T09:21:42.697Z,1014.95
2023-02-15T09:22:43.657Z,1014.92
2023-02-15T09:23:43.673Z,1014.86
2023-02-15T09:24:42.649Z,1014.86
2023-02-15T09:25:42.648Z,1014.90
2023-02-15T09:26:42.651Z,1014.84
2023-02-15T09:27:42.609Z,1014.88
2023-02-15T09:28:42.592Z,1014.85
2023-02-15T09:29:42.592Z,1014.86
2023-02-15T09:30:42.673Z,1014.88
2023-02-15T09:31:43.635Z,1014.83
2023-02-15T09:32:42.564Z,1014.82
2023-02-15T09:33:43.538Z,1014.85
2023-02-15T09:34:42.539Z,1014.86
2023-02-15T09:35:42.513Z,1014.83
2023-02-15T09:36:43.515Z,1014.83
2023-02-15T09:37:42.504Z,1014.81
2023-02-15T09:38:42.500Z,1014.80
2023-02-15T09:39:42.508Z,1014.80
2023-02-15T09:40:42.438Z,1014.77
2023-02-15T09:41:42.441Z,1014.73
2023-02-15T09:42:43.417Z,1014.80
2023-02-15T09:43:43.529Z,1014.87
2023-02-15T09:44:42.442Z,1014.81
2023-02-15T09:45:42.495Z,1014.82
2023-02-15T09:46:42.390Z,1014.84
2023-02-15T09:47:42.376Z,1014.92
2023-02-15T09:48:42.365Z,1014.85
2023-02-15T09:49:42.367Z,1014.95
2023-02-15T09:50:43.373Z,1014.92
2023-02-15T09:51:42.339Z,1014.84
2023-02-15T09:52:42.306Z,1014.92
2023-02-15T09:53:42.373Z,1014.90
2023-02-15T09:54:42.300Z,1014.93
2023-02-15T09:55:43.342Z,1014.90
2023-02-15T09:56:42.288Z,1014.93
2023-02-15T09:57:42.273Z,1014.90
2023-02-15T09:58:42.296Z,1014.95
2023-02-15T09:59:42.247Z,1014.92
2023-02-15T10:00:42.226Z,1014.92
2023-02-15T10:01:42.322Z,1014.86
2023-02-15T10:02:42.252Z,1014.87
2023-02-15T10:03:42.232Z,1014.88
2023-02-15T10:04:43.233Z,1014.86
2023-02-15T10:05:42.167Z,1014.85
2023-02-15T10:06:43.354Z,1014.85
2023-02-15T10:07:42.172Z,1014.88
2023-02-15T10:08:42.160Z,1014.83
2023-02-15T10:09:42.135Z,1014.82
2023-02-15T10:10:42.122Z,1014.76
2023-02-15T10:11:42.148Z,1014.77
2023-02-15T10:12:42.144Z,1014.79
2023-02-15T10:13:42.097Z,1014.76
2023-02-15T10:14:43.099Z,1014.74
2023-02-15T10:15:42.073Z,1014.69
2023-02-15T10:16:43.131Z,1014.75
2023-02-15T10:17:42.056Z,1014.71
2023-02-15T10:18:43.044Z,1014.77
2023-02-15T10:19:43.063Z,1014.79
2023-02-15T10:20:43.054Z,1014.73
2023-02-15T10:21:42.040Z,1014.72
2023-02-15T10:22:42.044Z,1014.78
2023-02-15T10:23:43.086Z,1014.75
2023-02-15T10:24:45.517Z,1014.71
2023-02-15T10:25:42.964Z,1014.73
2023-02-15T10:26:42.984Z,1014.69
2023-02-15T10:27:42.981Z,1014.69
2023-02-15T10:28:41.928Z,1014.66
2023-02-15T10:29:41.924Z,1014.69
2023-02-15T10:30:43.213Z,1014.66
2023-02-15T10:31:43.006Z,1014.71
2023-02-15T10:32:41.918Z,1014.63
2023-02-15T10:33:41.859Z,1014.69
2023-02-15T10:34:41.868Z,1014.66
2023-02-15T10:35:41.851Z,1014.56
2023-02-15T10:36:41.843Z,1014.51
2023-02-15T10:37:41.857Z,1014.53
2023-02-15T10:38:42.890Z,1014.46
2023-02-15T10:39:42.828Z,1014.49
2023-02-15T10:40:41.781Z,1014.45
2023-02-15T10:41:41.800Z,1014.50
2023-02-15T10:42:41.774Z,1014.49
2023-02-15T10:43:41.796Z,1014.42
2023-02-15T10:44:41.784Z,1014.45
2023-02-15T10:45:41.775Z,1014.39
2023-02-15T10:46:41.752Z,1014.43
2023-02-15T10:47:41.741Z,1014.45
2023-02-15T10:48:41.696Z,1014.47
2023-02-15T10:49:41.703Z,1014.42
2023-02-15T10:50:41.683Z,1014.42
2023-02-15T10:51:42.743Z,1014.36
2023-02-15T10:52:41.672Z,1014.39
2023-02-15T10:53:41.676Z,1014.32
2023-02-15T10:54:41.641Z,1014.28
2023-02-15T10:55:41.636Z,1014.27
2023-02-15T10:56:41.654Z,1014.24
2023-02-15T10:57:41.679Z,1014.31
2023-02-15T10:58:41.587Z,1014.29
2023-02-15T10:59:41.616Z,1014.31
2023-02-15T11:00:41.580Z,1014.22
2023-02-15T11:01:41.683Z,1014.25
2023-02-15T11:02:41.561Z,1014.22
2023-02-15T11:03:42.662Z,1014.19
2023-02-15T11:04:42.596Z,1014.23
2023-02-15T11:05:42.519Z,1014.25
2023-02-15T11:06:41.622Z,1014.22
2023-02-15T11:07:41.516Z,1014.21
2023-02-15T11:08:41.497Z,1014.19
2023-02-15T11:09:41.485Z,1014.22
2023-02-15T11:10:41.462Z,1014.19
2023-02-15T11:11:41.477Z,1014.20
2023-02-15T11:12:41.446Z,1014.20
2023-02-15T11:13:41.577Z,1014.22
2023-02-15T11:14:41.469Z,1014.15
2023-02-15T11:15:41.507Z,1014.21
2023-02-15T11:16:41.420Z,1014.14
2023-02-15T11:17:41.403Z,1014.14
2023-02-15T11:18:42.406Z,1014.14
2023-02-15T11:19:41.393Z,1014.10
2023-02-15T11:20:41.355Z,1014.13
2023-02-15T11:21:41.365Z,1014.08
2023-02-15T11:22:41.377Z,1014.13
2023-02-15T11:23:41.429Z,1014.15
2023-02-15T11:24:41.326Z,1014.09
2023-02-15T11:25:41.322Z,1014.14
2023-02-15T11:26:42.303Z,1014.11
2023-02-15T11:27:41.352Z,1014.16
2023-02-15T11:28:41.311Z,1014.05
2023-02-15T11:29:42.309Z,1014.05
2023-02-15T11:30:41.293Z,1014.06
2023-02-15T11:31:41.440Z,1014.04
2023-02-15T11:32:41.221Z,1014.06
2023-02-15T11:33:41.358Z,1014.01
2023-02-15T11:34:41.286Z,1014.03
2023-02-15T11:35:42.220Z,1014.03
2023-02-15T11:36:41.225Z,1014.01
2023-02-15T11:37:42.173Z,1014.01
2023-02-15T11:38:41.182Z,1014.05
2023-02-15T11:39:41.197Z,1014.00
2023-02-15T11:40:42.146Z,1013.95
2023-02-15T11:41:41.125Z,1013.97
2023-02-15T11:42:41.141Z,1013.94
2023-02-15T11:43:41.247Z,1013.97
2023-02-15T11:44:42.100Z,1013.91
2023-02-15T11:45:41.099Z,1013.89
2023-02-15T11:46:41.263Z,1013.82
2023-02-15T11:47:42.184Z,1013.85
2023-02-15T11:48:41.112Z,1013.90
2023-02-15T11:49:41.071Z,1013.85
2023-02-15T11:50:41.074Z,1013.86
2023-02-15T11:51:41.048Z,1013.85
2023-02-15T11:52:42.105Z,1013.83
2023-02-15T11:53:41.089Z,1013.85
2023-02-15T11:54:41.003Z,1013.83
2023-02-15T11:55:40.982Z,1013.85
2023-02-15T11:56:48.608Z,1013.78
2023-02-15T11:57:40.963Z,1013.72
2023-02-15T11:58:40.975Z,1013.79
2023-02-15T11:59:40.945Z,1013.71
2023-02-15T12:00:40.949Z,1013.67
2023-02-15T12:01:40.918Z,1013.66
2023-02-15T12:02:40.955Z,1013.72
2023-02-15T12:03:41.027Z,1013.70
2023-02-15T12:04:40.886Z,1013.70
2023-02-15T12:05:40.871Z,1013.72